createdAt,value
2023-05-06T00:00:36.144Z,100872.06
2023-05-06T00:03:04.159Z,100870.25
2023-05-06T00:05:32.169Z,100867.78
2023-05-06T00:08:00.075Z,100857.13
2023-05-06T00:10:29.507Z,100855.53
2023-05-06T00:12:57.414Z,100859.94
2023-05-06T00:15:25.334Z,100862.66
2023-05-06T00:17:53.652Z,100857.53
2023-05-06T00:20:21.834Z,100856.63
2023-05-06T00:22:49.730Z,100864.69
2023-05-06T00:25:17.694Z,100849.75
2023-05-06T00:27:47.076Z,100847.59
2023-05-06T00:30:15.126Z,100854.41
2023-05-06T00:32:43.038Z,100853.81
2023-05-06T00:35:11.266Z,100847.75
2023-05-06T00:37:39.306Z,100857.88
2023-05-06T00:40:08.646Z,100851.28
2023-05-06T00:42:36.573Z,100849.13
2023-05-06T00:45:07.619Z,100847.88
2023-05-06T00:47:35.921Z,100850.38
2023-05-06T00:50:04.579Z,100849.03
2023-05-06T00:52:32.640Z,100840.56
2023-05-06T00:55:00.591Z,100835.75
2023-05-06T00:57:28.664Z,100834.84
2023-05-06T00:59:56.595Z,100842.63
2023-05-06T01:02:33.229Z,100843.19
2023-05-06T01:05:09.510Z,100842.44
2023-05-06T01:07:48.750Z,100836.44
2023-05-06T01:10:22.532Z,100841.03
2023-05-06T01:12:59.261Z,100838.66
2023-05-06T01:15:34.191Z,100843.88
2023-05-06T01:18:11.435Z,100837.59
2023-05-06T01:20:42.273Z,100841.47
2023-05-06T01:23:13.138Z,100832.28
2023-05-06T01:25:41.612Z,100825.44
2023-05-06T01:28:11.721Z,100831.50
2023-05-06T01:30:57.067Z,100827.19
2023-05-06T01:33:33.937Z,100829.69
2023-05-06T01:36:11.286Z,100833.53
2023-05-06T01:38:47.178Z,100823.03
2023-05-06T01:41:17.961Z,100825.16
2023-05-06T01:43:48.551Z,100832.06
2023-05-06T01:46:20.095Z,100826.94
2023-05-06T01:48:53.903Z,100821.47
2023-05-06T01:51:22.609Z,100816.53
2023-05-06T01:53:51.950Z,100822.06
2023-05-06T01:56:19.892Z,100812.22
2023-05-06T01:58:47.866Z,100824.00
2023-05-06T02:01:15.835Z,100823.91
2023-05-06T02:03:43.862Z,100823.72
2023-05-06T02:06:11.871Z,100825.41
2023-05-06T02:08:40.262Z,100822.03
2023-05-06T02:11:09.584Z,100821.31
2023-05-06T02:13:37.484Z,100823.56
2023-05-06T02:16:05.628Z,100826.63
2023-05-06T02:18:33.622Z,100820.41
2023-05-06T02:21:01.617Z,100806.28
2023-05-06T02:23:29.536Z,100820.06
2023-05-06T02:25:58.137Z,100815.69
2023-05-06T02:28:27.469Z,100813.41
2023-05-06T02:30:58.650Z,100808.94
2023-05-06T02:33:26.791Z,100811.91
2023-05-06T02:35:54.699Z,100807.53
2023-05-06T02:38:23.010Z,100805.00
2023-05-06T02:40:50.886Z,100805.19
2023-05-06T02:43:18.788Z,100806.72
2023-05-06T02:45:48.148Z,100800.75
2023-05-06T02:48:16.470Z,100802.81
2023-05-06T02:50:44.413Z,100800.84
2023-05-06T02:53:13.366Z,100805.84
2023-05-06T02:55:41.299Z,100800.94
2023-05-06T02:58:09.293Z,100806.16
2023-05-06T03:00:37.466Z,100801.81
2023-05-06T03:03:06.861Z,100810.06
2023-05-06T03:05:34.791Z,100809.75
2023-05-06T03:08:03.206Z,100801.97
2023-05-06T03:10:31.109Z,100815.28
2023-05-06T03:12:59.076Z,100818.44
2023-05-06T03:15:27.283Z,100826.59
2023-05-06T03:17:55.241Z,100827.25
2023-05-06T03:20:24.605Z,100827.19
2023-05-06T03:22:52.497Z,100828.28
2023-05-06T03:25:20.463Z,100830.03
2023-05-06T03:27:48.362Z,100835.13
2023-05-06T03:30:16.328Z,100839.78
2023-05-06T03:32:44.333Z,100834.78
2023-05-06T03:35:12.468Z,100845.75
2023-05-06T03:37:42.023Z,100844.81
2023-05-06T03:40:10.831Z,100856.91
2023-05-06T03:42:38.777Z,100851.53
2023-05-06T03:45:08.737Z,100843.16
2023-05-06T03:47:37.087Z,100858.41
2023-05-06T03:50:05.588Z,100863.41
2023-05-06T03:52:33.504Z,100861.09
2023-05-06T03:55:02.766Z,100868.69
2023-05-06T03:57:30.796Z,100868.97
2023-05-06T03:59:58.686Z,100861.81
2023-05-06T04:02:26.747Z,100880.06
2023-05-06T04:04:54.732Z,100870.00
2023-05-06T04:07:22.709Z,100871.25
2023-05-06T04:09:50.610Z,100874.13
2023-05-06T04:12:19.908Z,100872.91
2023-05-06T04:14:47.826Z,100874.59
2023-05-06T04:17:17.198Z,100880.53
2023-05-06T04:19:45.166Z,100878.28
2023-05-06T04:22:13.081Z,100886.84
2023-05-06T04:24:41.824Z,100887.53
2023-05-06T04:27:09.768Z,100883.75
2023-05-06T04:29:39.231Z,100896.47
2023-05-06T04:32:07.931Z,100891.66
2023-05-06T04:34:36.331Z,100888.03
2023-05-06T04:37:05.079Z,100890.09
2023-05-06T04:39:33.377Z,100891.91
2023-05-06T04:42:03.511Z,100884.91
2023-05-06T04:44:34.090Z,100889.03
2023-05-06T04:47:03.409Z,100898.38
2023-05-06T04:49:31.402Z,100895.63
2023-05-06T04:51:59.340Z,100903.25
2023-05-06T04:54:27.242Z,100901.84
2023-05-06T04:56:55.759Z,100902.50
2023-05-06T04:59:23.670Z,100903.72
2023-05-06T05:01:51.672Z,100893.00
2023-05-06T05:04:21.029Z,100897.59
2023-05-06T05:06:48.981Z,100904.03
2023-05-06T05:09:16.943Z,100914.03
2023-05-06T05:11:44.908Z,100903.72
2023-05-06T05:14:12.811Z,100916.00
2023-05-06T05:16:40.816Z,100907.91
2023-05-06T05:19:09.440Z,100913.38
2023-05-06T05:21:38.982Z,100908.25
2023-05-06T05:24:07.296Z,100917.19
2023-05-06T05:26:35.231Z,100920.13
2023-05-06T05:29:03.141Z,100915.06
2023-05-06T05:31:31.500Z,100925.41
2023-05-06T05:33:59.551Z,100924.59
2023-05-06T05:36:27.740Z,100937.31
2023-05-06T05:38:59.009Z,100915.53
2023-05-06T05:41:27.564Z,100935.28
2023-05-06T05:43:55.560Z,100935.69
2023-05-06T05:46:23.588Z,100934.22
2023-05-06T05:48:51.699Z,100938.41
2023-05-06T05:51:19.589Z,100925.88
2023-05-06T05:53:47.571Z,100932.84
2023-05-06T05:56:16.874Z,100947.13
2023-05-06T05:58:44.814Z,100943.13
2023-05-06T06:01:13.136Z,100941.91
2023-05-06T06:03:41.245Z,100941.59
2023-05-06T06:06:09.701Z,100944.22
2023-05-06T06:08:37.778Z,100943.38
2023-05-06T06:11:06.278Z,100952.34
2023-05-06T06:13:35.846Z,100949.13
2023-05-06T06:16:03.877Z,100949.63
2023-05-06T06:18:31.908Z,100951.38
2023-05-06T06:20:59.848Z,100944.09
2023-05-06T06:23:27.775Z,100949.78
2023-05-06T06:25:55.710Z,100938.56
2023-05-06T06:28:23.624Z,100950.94
2023-05-06T06:30:52.919Z,100954.50
2023-05-06T06:33:20.820Z,100945.75
2023-05-06T06:35:48.745Z,100952.44
2023-05-06T06:38:16.679Z,100950.44
2023-05-06T06:40:44.558Z,100944.19
2023-05-06T06:43:12.637Z,100947.78
2023-05-06T06:45:40.606Z,100941.34
2023-05-06T06:48:10.101Z,100943.53
2023-05-06T06:50:38.033Z,100948.91
2023-05-06T06:53:06.456Z,100941.31
2023-05-06T06:55:34.753Z,100942.28
2023-05-06T06:58:02.626Z,100947.59
2023-05-06T07:00:30.541Z,100961.38
2023-05-06T07:02:58.482Z,100956.03
2023-05-06T07:05:28.068Z,100966.09
2023-05-06T07:07:55.974Z,100964.88
2023-05-06T07:10:24.121Z,100961.88
2023-05-06T07:12:52.101Z,100959.88
2023-05-06T07:15:20.364Z,100949.31
2023-05-06T07:17:48.394Z,100958.78
2023-05-06T07:20:16.760Z,100947.03
2023-05-06T07:22:46.707Z,100963.72
2023-05-06T07:25:14.870Z,100965.28
2023-05-06T07:27:42.820Z,100963.59
2023-05-06T07:30:11.400Z,100964.16
2023-05-06T07:32:41.145Z,100954.03
2023-05-06T07:35:10.577Z,100965.84
2023-05-06T07:37:38.683Z,100963.19
2023-05-06T07:40:09.374Z,100964.25
2023-05-06T07:42:37.280Z,100968.31
2023-05-06T07:45:06.040Z,100967.16
2023-05-06T07:47:34.758Z,100972.88
2023-05-06T07:50:02.904Z,100969.91
2023-05-06T07:52:30.779Z,100960.88
2023-05-06T07:54:58.740Z,100959.06
2023-05-06T07:57:28.082Z,100963.09
2023-05-06T07:59:56.095Z,100931.81
2023-05-06T08:02:24.139Z,100972.88
2023-05-06T08:04:52.232Z,100969.56
2023-05-06T08:07:20.485Z,100961.91
2023-05-06T08:09:48.443Z,100963.09
2023-05-06T08:12:17.585Z,100957.09
2023-05-06T08:14:46.940Z,100970.44
2023-05-06T08:17:14.892Z,100964.09
2023-05-06T08:19:42.821Z,100959.75
2023-05-06T08:22:10.709Z,100970.91
2023-05-06T08:24:38.731Z,100960.84
2023-05-06T08:27:06.651Z,100954.41
2023-05-06T08:29:34.599Z,100964.13
2023-05-06T08:32:03.980Z,100959.34
2023-05-06T08:34:32.150Z,100960.16
2023-05-06T08:37:00.316Z,100960.97
2023-05-06T08:39:29.013Z,100961.47
2023-05-06T08:41:59.110Z,100966.47
2023-05-06T08:44:27.019Z,100980.13
2023-05-06T08:46:55.699Z,100953.13
2023-05-06T08:49:25.045Z,100958.28
2023-05-06T08:51:53.572Z,100958.16
2023-05-06T08:54:26.040Z,100954.69
2023-05-06T08:56:54.909Z,100949.97
2023-05-06T08:59:26.759Z,100949.88
2023-05-06T09:01:54.756Z,100971.63
2023-05-06T09:04:24.126Z,100949.00
2023-05-06T09:06:52.025Z,100965.41
2023-05-06T09:09:19.996Z,100957.06
2023-05-06T09:11:54.125Z,100955.66
2023-05-06T09:14:23.210Z,100949.16
2023-05-06T09:16:53.547Z,100954.19
2023-05-06T09:19:23.479Z,100892.66
2023-05-06T09:21:53.225Z,100934.53
2023-05-06T09:24:21.789Z,100954.81
2023-05-06T09:26:49.820Z,100946.56
2023-05-06T09:29:17.731Z,100950.06
2023-05-06T09:31:47.785Z,100957.53
2023-05-06T09:34:17.528Z,100948.66
2023-05-06T09:36:45.690Z,100937.53
2023-05-06T09:39:15.015Z,100954.69
2023-05-06T09:41:44.334Z,100939.41
2023-05-06T09:44:13.244Z,100932.38
2023-05-06T09:46:41.864Z,100948.53
2023-05-06T09:49:10.296Z,100941.38
2023-05-06T09:51:38.869Z,100933.63
2023-05-06T09:54:07.811Z,100943.44
2023-05-06T09:56:38.165Z,100934.03
2023-05-06T09:59:07.794Z,100939.09
2023-05-06T10:01:37.790Z,100922.38
2023-05-06T10:04:10.324Z,100949.31
2023-05-06T10:06:41.398Z,100920.44
2023-05-06T10:09:10.391Z,100922.34
2023-05-06T10:11:40.544Z,100918.88
2023-05-06T10:14:09.278Z,100910.53
2023-05-06T10:16:40.172Z,100913.03
2023-05-06T10:19:09.435Z,100924.69
2023-05-06T10:21:40.944Z,100922.53
2023-05-06T10:24:12.913Z,100907.28
2023-05-06T10:26:46.708Z,100913.19
2023-05-06T10:29:15.086Z,100927.47
2023-05-06T10:31:49.395Z,100913.19
2023-05-06T10:34:22.299Z,100907.91
2023-05-06T10:36:53.060Z,100912.63
2023-05-06T10:39:21.816Z,100906.31
2023-05-06T10:41:51.330Z,100903.81
2023-05-06T10:44:19.249Z,100903.50
2023-05-06T10:47:05.732Z,100906.53
2023-05-06T10:49:33.678Z,100910.91
2023-05-06T10:52:13.239Z,100906.56
2023-05-06T10:54:51.520Z,100902.44
2023-05-06T10:57:26.627Z,100898.47
2023-05-06T10:59:56.034Z,100902.09
2023-05-06T11:02:25.356Z,100911.91
2023-05-06T11:05:00.789Z,100913.50
2023-05-06T11:07:28.924Z,100917.66
2023-05-06T11:09:58.771Z,100907.69
2023-05-06T11:12:49.123Z,100907.69
2023-05-06T11:15:35.937Z,100937.59
2023-05-06T11:18:43.539Z,100912.78
2023-05-06T11:21:39.304Z,100902.88
2023-05-06T11:24:15.179Z,100905.03
2023-05-06T11:26:43.863Z,100896.84
2023-05-06T11:29:13.191Z,100907.53
2023-05-06T11:31:42.973Z,100906.63
2023-05-06T11:34:13.365Z,100896.19
2023-05-06T11:37:02.280Z,100898.69
2023-05-06T11:39:34.877Z,100897.03
2023-05-06T11:42:08.640Z,100890.28
2023-05-06T11:44:39.507Z,100901.34
2023-05-06T11:47:08.820Z,100896.63
2023-05-06T11:49:38.640Z,100903.34
2023-05-06T11:52:07.028Z,100900.94
2023-05-06T11:54:36.406Z,100890.22
2023-05-06T11:57:04.672Z,100895.16
2023-05-06T11:59:33.912Z,100898.41
2023-05-06T12:02:04.644Z,100893.28
2023-05-06T12:04:39.894Z,100883.78
2023-05-06T12:07:09.468Z,100883.06
2023-05-06T12:09:38.076Z,100896.31
2023-05-06T12:12:07.083Z,100868.88
2023-05-06T12:14:35.382Z,100892.69
2023-05-06T12:17:05.079Z,100893.00
2023-05-06T12:19:33.799Z,100884.50
2023-05-06T12:22:15.952Z,100887.84
2023-05-06T12:24:43.900Z,100886.06
2023-05-06T12:27:11.888Z,100876.41
2023-05-06T12:29:39.827Z,100886.13
2023-05-06T12:32:10.889Z,100875.44
2023-05-06T12:34:40.163Z,100872.19
2023-05-06T12:37:08.828Z,100875.81
2023-05-06T12:39:37.672Z,100879.59
2023-05-06T12:42:06.452Z,100871.63
2023-05-06T12:44:36.298Z,100856.81
2023-05-06T12:47:07.513Z,100865.03
2023-05-06T12:49:51.099Z,100867.75
2023-05-06T12:52:20.137Z,100857.28
2023-05-06T12:54:49.025Z,100862.72
2023-05-06T12:57:17.499Z,100865.41
2023-05-06T12:59:46.586Z,100870.31
2023-05-06T13:02:14.923Z,100857.94
2023-05-06T13:04:43.148Z,100852.44
2023-05-06T13:07:12.873Z,100857.44
2023-05-06T13:09:40.905Z,100855.03
2023-05-06T13:12:09.075Z,100841.22
2023-05-06T13:14:39.938Z,100843.84
2023-05-06T13:17:08.637Z,100846.69
2023-05-06T13:19:36.690Z,100842.16
2023-05-06T13:22:04.596Z,100839.94
2023-05-06T13:24:33.927Z,100846.00
2023-05-06T13:27:02.305Z,100851.47
2023-05-06T13:29:30.618Z,100860.81
2023-05-06T13:31:58.749Z,100850.22
2023-05-06T13:34:26.846Z,100838.50
2023-05-06T13:36:56.645Z,100842.41
2023-05-06T13:39:25.073Z,100822.38
2023-05-06T13:41:54.445Z,100836.84
2023-05-06T13:44:24.503Z,100825.47
2023-05-06T13:46:52.624Z,100830.97
2023-05-06T13:49:20.772Z,100825.84
2023-05-06T13:51:48.919Z,100823.38
2023-05-06T13:54:16.951Z,100829.19
2023-05-06T13:56:44.932Z,100830.84
2023-05-06T13:59:14.424Z,100828.84
2023-05-06T14:01:43.233Z,100824.16
2023-05-06T14:04:11.217Z,100830.78
2023-05-06T14:06:39.352Z,100829.22
2023-05-06T14:09:07.280Z,100817.78
2023-05-06T14:11:35.271Z,100832.84
2023-05-06T14:14:03.151Z,100825.06
2023-05-06T14:16:32.526Z,100826.38
2023-05-06T14:19:01.114Z,100818.44
2023-05-06T14:21:29.057Z,100820.88
2023-05-06T14:23:57.272Z,100822.69
2023-05-06T14:26:25.631Z,100818.75
2023-05-06T14:28:53.630Z,100819.03
2023-05-06T14:31:21.580Z,100819.59
2023-05-06T14:33:50.864Z,100813.06
2023-05-06T14:36:21.879Z,100788.25
2023-05-06T14:38:49.770Z,100802.19
2023-05-06T14:41:17.689Z,100806.22
2023-05-06T14:43:45.659Z,100797.91
2023-05-06T14:46:14.625Z,100800.66
2023-05-06T14:48:43.427Z,100800.84
2023-05-06T14:51:12.776Z,100802.00
2023-05-06T14:53:40.718Z,100794.69
2023-05-06T14:56:10.749Z,100805.50
2023-05-06T14:58:39.271Z,100805.81
2023-05-06T15:01:07.370Z,100799.19
2023-05-06T15:03:36.377Z,100816.66
2023-05-06T15:06:04.553Z,100805.69
2023-05-06T15:08:33.953Z,100803.56
2023-05-06T15:11:03.790Z,100804.22
2023-05-06T15:13:32.257Z,100807.75
2023-05-06T15:16:00.213Z,100805.56
2023-05-06T15:18:28.115Z,100801.38
2023-05-06T15:20:58.718Z,100812.47
2023-05-06T15:23:26.669Z,100801.03
2023-05-06T15:25:55.948Z,100802.06
2023-05-06T15:28:24.552Z,100815.94
2023-05-06T15:30:52.816Z,100790.25
2023-05-06T15:33:20.854Z,100796.75
2023-05-06T15:35:48.786Z,100802.31
2023-05-06T15:38:16.736Z,100811.84
2023-05-06T15:40:51.113Z,100816.44
2023-05-06T15:43:24.148Z,100804.22
2023-05-06T15:45:53.039Z,100818.06
2023-05-06T15:48:21.063Z,100811.13
2023-05-06T15:50:48.956Z,100810.75
2023-05-06T15:53:16.894Z,100800.22
2023-05-06T15:55:49.511Z,100807.25
2023-05-06T15:58:25.765Z,100794.84
2023-05-06T16:00:53.669Z,100806.38
2023-05-06T16:03:21.748Z,100804.72
2023-05-06T16:05:50.052Z,100817.09
2023-05-06T16:08:18.743Z,100815.69
2023-05-06T16:10:46.825Z,100810.19
2023-05-06T16:13:14.882Z,100816.53
2023-05-06T16:15:44.472Z,100816.03
2023-05-06T16:18:12.713Z,100814.44
2023-05-06T16:20:40.724Z,100805.78
2023-05-06T16:23:08.755Z,100808.34
2023-05-06T16:25:38.290Z,100814.44
2023-05-06T16:28:06.642Z,100808.44
2023-05-06T16:30:34.545Z,100814.75
2023-05-06T16:33:05.199Z,100817.75
2023-05-06T16:35:33.915Z,100816.44
2023-05-06T16:38:01.803Z,100817.88
2023-05-06T16:40:31.146Z,100818.88
2023-05-06T16:42:59.104Z,100805.28
2023-05-06T16:45:27.095Z,100814.78
2023-05-06T16:47:55.319Z,100811.16
2023-05-06T16:50:24.698Z,100818.19
2023-05-06T16:52:53.057Z,100819.00
2023-05-06T16:55:21.919Z,100825.53
2023-05-06T16:57:50.177Z,100831.53
2023-05-06T17:00:18.981Z,100818.75
2023-05-06T17:02:47.393Z,100828.19
2023-05-06T17:05:15.339Z,100829.34
2023-05-06T17:07:44.689Z,100838.53
2023-05-06T17:10:13.273Z,100820.53
2023-05-06T17:12:42.257Z,100833.25
2023-05-06T17:15:11.011Z,100832.41
2023-05-06T17:17:39.677Z,100840.25
2023-05-06T17:20:09.358Z,100831.38
2023-05-06T17:22:37.562Z,100834.72
2023-05-06T17:25:08.320Z,100837.50
2023-05-06T17:27:36.240Z,100826.38
2023-05-06T17:30:04.697Z,100838.97
2023-05-06T17:32:32.736Z,100856.00
2023-05-06T17:35:01.214Z,100853.22
2023-05-06T17:37:29.221Z,100847.03
2023-05-06T17:39:57.109Z,100860.06
2023-05-06T17:42:27.534Z,100854.78
2023-05-06T17:44:55.642Z,100850.91
2023-05-06T17:47:24.086Z,100870.25
2023-05-06T17:49:53.901Z,100864.34
2023-05-06T17:52:21.951Z,100869.28
2023-05-06T17:55:05.809Z,100883.06
2023-05-06T17:57:39.173Z,100879.66
2023-05-06T18:00:09.286Z,100887.31
2023-05-06T18:02:37.523Z,100876.63
2023-05-06T18:05:06.563Z,100883.91
2023-05-06T18:07:36.134Z,100888.84
2023-05-06T18:10:04.164Z,100891.63
2023-05-06T18:12:32.232Z,100896.94
2023-05-06T18:15:01.529Z,100902.56
2023-05-06T18:17:29.519Z,100904.72
2023-05-06T18:19:57.555Z,100907.47
2023-05-06T18:22:25.592Z,100883.91
2023-05-06T18:24:55.374Z,100915.50
2023-05-06T18:27:23.719Z,100906.94
2023-05-06T18:29:51.725Z,100902.16
2023-05-06T18:32:21.174Z,100906.47
2023-05-06T18:34:49.139Z,100927.94
2023-05-06T18:37:17.065Z,100924.94
2023-05-06T18:39:45.618Z,100931.25
2023-05-06T18:42:13.875Z,100928.63
2023-05-06T18:44:43.365Z,100937.97
2023-05-06T18:47:11.280Z,100946.75
2023-05-06T18:49:40.613Z,100944.72
2023-05-06T18:52:08.534Z,100945.88
2023-05-06T18:54:36.476Z,100950.66
2023-05-06T18:57:04.617Z,100959.56
2023-05-06T18:59:33.660Z,100945.19
2023-05-06T19:02:03.706Z,100959.63
2023-05-06T19:04:32.389Z,100961.25
2023-05-06T19:07:01.785Z,100966.78
2023-05-06T19:09:29.705Z,100960.81
2023-05-06T19:11:57.578Z,100955.16
2023-05-06T19:14:25.685Z,100966.47
2023-05-06T19:16:53.649Z,100964.00
2023-05-06T19:19:21.599Z,100965.00
2023-05-06T19:21:49.525Z,100975.66
2023-05-06T19:24:18.825Z,100976.00
2023-05-06T19:26:47.114Z,100945.16
2023-05-06T19:29:15.304Z,100982.53
2023-05-06T19:31:43.245Z,100980.28
2023-05-06T19:34:11.162Z,100984.81
2023-05-06T19:36:39.094Z,100981.31
2023-05-06T19:39:07.012Z,100987.53
2023-05-06T19:41:36.519Z,100980.97
2023-05-06T19:44:04.458Z,100987.53
2023-05-06T19:46:32.566Z,100976.91
2023-05-06T19:49:01.093Z,100982.94
2023-05-06T19:51:29.451Z,100993.91
2023-05-06T19:53:57.348Z,100967.47
2023-05-06T19:56:25.313Z,100982.75
2023-05-06T19:58:54.608Z,100983.28
2023-05-06T20:01:24.001Z,100979.09
2023-05-06T20:03:52.130Z,100980.59
2023-05-06T20:06:20.119Z,100982.00
2023-05-06T20:08:48.079Z,100986.22
2023-05-06T20:11:16.046Z,100975.69
2023-05-06T20:13:43.959Z,100981.03
2023-05-06T20:16:13.285Z,100994.00
2023-05-06T20:18:42.877Z,100999.25
2023-05-06T20:21:10.812Z,100991.81
2023-05-06T20:23:38.737Z,100996.41
2023-05-06T20:26:06.694Z,101005.41
2023-05-06T20:28:37.779Z,101002.81
2023-05-06T20:31:06.167Z,101003.41
2023-05-06T20:33:35.475Z,101002.19
2023-05-06T20:36:04.000Z,101000.78
2023-05-06T20:38:31.982Z,100991.50
2023-05-06T20:41:02.809Z,101000.06
2023-05-06T20:43:31.759Z,101007.09
2023-05-06T20:45:59.690Z,101005.94
2023-05-06T20:48:27.856Z,100979.59
2023-05-06T20:50:57.820Z,101002.31
2023-05-06T20:53:27.247Z,100996.66
2023-05-06T20:55:55.296Z,101004.59
2023-05-06T20:58:23.250Z,101012.53
2023-05-06T21:00:51.244Z,101004.09
2023-05-06T21:03:19.268Z,101008.59
2023-05-06T21:05:47.273Z,101011.50
2023-05-06T21:08:18.141Z,101013.41
2023-05-06T21:10:46.080Z,101011.31
2023-05-06T21:13:14.128Z,101006.63
2023-05-06T21:15:42.032Z,101011.22
2023-05-06T21:18:10.299Z,101011.94
2023-05-06T21:20:38.267Z,101000.97
2023-05-06T21:23:06.199Z,101021.78
2023-05-06T21:25:35.754Z,101014.97
2023-05-06T21:28:06.197Z,101017.81
2023-05-06T21:30:36.314Z,101013.31
2023-05-06T21:33:05.083Z,101025.53
2023-05-06T21:35:33.045Z,101031.72
2023-05-06T21:38:00.934Z,101021.53
2023-05-06T21:40:29.161Z,101023.97
2023-05-06T21:42:58.464Z,101029.59
2023-05-06T21:45:26.549Z,101024.59
2023-05-06T21:47:54.541Z,101029.59
2023-05-06T21:50:22.596Z,101028.53
2023-05-06T21:52:50.537Z,101032.38
2023-05-06T21:55:19.266Z,101033.13
2023-05-06T21:57:47.196Z,101034.81
2023-05-06T22:00:17.313Z,101035.88
2023-05-06T22:02:46.310Z,101040.34
2023-05-06T22:05:14.418Z,101043.28
2023-05-06T22:07:42.339Z,101037.84
2023-05-06T22:10:10.882Z,101039.09
2023-05-06T22:12:38.870Z,101042.84
2023-05-06T22:15:08.964Z,101040.19
2023-05-06T22:17:38.920Z,101043.63
2023-05-06T22:20:11.107Z,101037.81
2023-05-06T22:22:39.565Z,101029.38
2023-05-06T22:25:08.913Z,101036.41
2023-05-06T22:27:36.984Z,101039.91
2023-05-06T22:30:05.414Z,101035.09
2023-05-06T22:32:33.367Z,101044.19
2023-05-06T22:35:02.693Z,101040.22
2023-05-06T22:37:30.672Z,101046.00
2023-05-06T22:39:58.802Z,101048.66
2023-05-06T22:42:26.740Z,101049.19
2023-05-06T22:44:54.680Z,101054.53
2023-05-06T22:47:22.683Z,101034.59
2023-05-06T22:49:50.785Z,101042.84
2023-05-06T22:52:20.359Z,101043.22
2023-05-06T22:54:48.353Z,101052.97
2023-05-06T22:57:16.421Z,101041.44
2023-05-06T22:59:44.492Z,101048.47
2023-05-06T23:02:12.683Z,101045.53
2023-05-06T23:04:40.592Z,101051.22
2023-05-06T23:07:08.547Z,101046.69
2023-05-06T23:09:37.877Z,101038.22
2023-05-06T23:12:06.334Z,101024.22
2023-05-06T23:14:34.323Z,101054.34
2023-05-06T23:17:02.318Z,101030.81
2023-05-06T23:19:30.246Z,101038.88
2023-05-06T23:21:58.145Z,101038.16
2023-05-06T23:24:26.062Z,101030.53
2023-05-06T23:26:55.671Z,101031.66
2023-05-06T23:29:23.572Z,101028.19
2023-05-06T23:31:51.491Z,101025.91
2023-05-06T23:34:19.378Z,101020.88
2023-05-06T23:36:47.436Z,101025.47
2023-05-06T23:39:15.402Z,101024.84
2023-05-06T23:41:43.338Z,101017.63
2023-05-06T23:44:12.648Z,100998.47
2023-05-06T23:46:40.600Z,100935.06
2023-05-06T23:49:08.574Z,100997.38
2023-05-06T23:51:36.524Z,101000.75
2023-05-06T23:54:04.460Z,101003.97
2023-05-06T23:56:32.424Z,101003.50
2023-05-06T23:59:00.435Z,100998.69
